Time;durP1;ratioP1;P1;durP2;ratioP2;P2;SDS_P1;SDS_P2;PMS_P1;PMS_P2;Temp;Humidity;BMP_temperature;BMP_pressure;BME280_temperature;BME280_humidity;BME280_pressure;Samples;Min_cycle;Max_cycle;Signal;HPM_P1;HPM_P2
2022/06/19 00:02:16;;;;;;;6.17;3.35;;;;;;;19.80;59.80;100287.45;1730103;81;20975;-81
2022/06/19 00:04:47;;;;;;;5.50;2.95;;;;;;;19.75;59.82;100282.96;1730188;80;21038;-79
2022/06/19 00:07:14;;;;;;;5.90;3.35;;;;;;;19.68;59.90;100283.09;1729952;81;21526;-80
2022/06/19 00:09:43;;;;;;;5.58;2.83;;;;;;;19.65;60.20;100283.30;1736822;80;21162;-81
2022/06/19 00:12:11;;;;;;;5.47;3.22;;;;;;;19.58;60.25;100281.57;1745521;80;21046;-82
2022/06/19 00:14:38;;;;;;;4.30;3.00;;;;;;;19.59;60.36;100277.97;1750582;80;21518;-79
2022/06/19 00:17:07;;;;;;;8.20;3.00;;;;;;;19.61;60.51;100279.16;1738880;81;21025;-83
2022/06/19 00:19:35;;;;;;;6.23;3.43;;;;;;;19.66;60.56;100274.86;1738453;80;21030;-79
2022/06/19 00:22:04;;;;;;;7.35;3.15;;;;;;;19.60;60.60;100276.15;1758120;80;21779;-80
2022/06/19 00:24:32;;;;;;;5.65;3.15;;;;;;;19.54;60.71;100288.10;1732611;80;21029;-79
2022/06/19 00:26:59;;;;;;;7.12;3.90;;;;;;;19.51;60.65;100284.81;1729882;80;21101;-80
2022/06/19 00:29:28;;;;;;;7.10;3.22;;;;;;;19.47;60.52;100286.02;1760973;80;21058;-79
2022/06/19 00:31:55;;;;;;;4.60;2.90;;;;;;;19.49;60.49;100277.45;1729935;81;21457;-80
2022/06/19 00:34:23;;;;;;;7.08;2.98;;;;;;;19.48;60.68;100275.74;1748005;80;21106;-79
2022/06/19 00:36:51;;;;;;;7.85;2.92;;;;;;;19.43;60.83;100281.88;1764386;80;21479;-80
2022/06/19 00:39:20;;;;;;;5.28;3.10;;;;;;;19.41;60.92;100287.82;1735970;80;21085;-79
2022/06/19 00:41:48;;;;;;;5.95;3.30;;;;;;;19.32;61.10;100276.92;1730068;81;20962;-79
2022/06/19 00:44:17;;;;;;;7.50;3.50;;;;;;;19.21;61.29;100271.57;1730192;80;21026;-81
2022/06/19 00:47:19;;;;;;;5.47;3.90;;;;;;;19.13;61.50;100272.62;1744620;80;21572;-79
2022/06/19 00:49:55;;;;;;;9.48;3.67;;;;;;;19.09;61.86;100278.66;1746736;81;20977;-79
2022/06/19 00:52:27;;;;;;;7.35;3.55;;;;;;;19.04;61.90;100279.47;1750707;81;21040;-79
2022/06/19 00:55:06;;;;;;;5.35;3.55;;;;;;;18.99;61.90;100277.64;1735005;81;21508;-79
2022/06/19 00:57:38;;;;;;;6.00;3.47;;;;;;;18.92;62.04;100275.89;1715453;83;22369;-80
2022/06/19 01:00:14;;;;;;;7.78;3.92;;;;;;;18.87;62.06;100274.09;1768450;80;21114;-79
2022/06/19 01:02:43;;;;;;;4.97;4.22;;;;;;;18.83;62.02;100269.95;1736225;81;21460;-79
2022/06/19 01:05:13;;;;;;;6.12;3.72;;;;;;;18.82;62.12;100278.88;1730110;80;21018;-79
2022/06/19 01:07:44;;;;;;;6.92;3.83;;;;;;;18.84;62.43;100276.94;1739959;80;21080;-79
2022/06/19 01:10:13;;;;;;;8.98;4.22;;;;;;;18.79;62.35;100282.22;1733543;81;21057;-79
2022/06/19 01:12:43;;;;;;;9.93;4.72;;;;;;;18.71;62.53;100271.66;1729889;80;21208;-79
2022/06/19 01:15:14;;;;;;;9.65;4.15;;;;;;;18.62;62.75;100277.66;1738848;81;21568;-79
2022/06/19 01:17:42;;;;;;;7.72;4.80;;;;;;;18.58;62.96;100275.33;1729866;81;21050;-83
2022/06/19 01:20:12;;;;;;;9.73;4.62;;;;;;;18.55;63.06;100278.20;1730165;80;21575;-79
2022/06/19 01:22:53;;;;;;;9.70;4.90;;;;;;;18.49;63.18;100279.50;1764892;80;21452;-79
2022/06/19 01:25:25;;;;;;;9.53;4.90;;;;;;;18.43;63.38;100279.94;1769537;80;21803;-79
2022/06/19 01:30:46;;;;;;;7.45;5.05;;;;;;;18.32;63.72;100276.73;1745355;81;20996;-84
2022/06/19 01:33:30;;;;;;;8.23;5.17;;;;;;;18.28;63.84;100270.77;1773384;80;21608;-82
2022/06/19 01:36:00;;;;;;;7.28;4.92;;;;;;;18.24;63.92;100267.14;1744383;79;21056;-79
2022/06/19 01:38:28;;;;;;;8.15;5.12;;;;;;;18.21;64.19;100268.69;1778543;79;22232;-79
2022/06/19 01:41:00;;;;;;;8.38;5.00;;;;;;;18.18;64.37;100276.83;1788896;80;20974;-79
2022/06/19 01:43:28;;;;;;;7.17;5.00;;;;;;;18.15;64.53;100267.31;1767403;80;21010;-79
2022/06/19 01:45:57;;;;;;;7.37;5.25;;;;;;;18.12;64.41;100265.33;1756623;80;21079;-79
2022/06/19 01:48:29;;;;;;;9.05;5.72;;;;;;;18.10;64.71;100270.77;1780734;80;21052;-79
2022/06/19 01:50:58;;;;;;;6.87;5.10;;;;;;;18.08;64.65;100267.36;1747720;81;21724;-79
2022/06/19 01:53:58;;;;;;;7.63;4.70;;;;;;;18.05;64.84;100260.95;1754271;81;21001;-79
2022/06/19 01:56:25;;;;;;;;;;;;;;;18.02;64.96;100260.69;1731368;81;20998;-79
2022/06/19 01:58:56;;;;;;;7.15;4.40;;;;;;;17.99;65.49;100259.58;1754251;81;20173;-80
2022/06/19 02:01:23;;;;;;;8.48;4.50;;;;;;;17.97;65.25;100260.64;1754619;81;21454;-85
2022/06/19 02:03:57;;;;;;;5.97;4.33;;;;;;;17.96;65.08;100258.95;1754247;81;21114;-79
2022/06/19 02:06:32;;;;;;;7.42;4.30;;;;;;;17.93;65.09;100254.71;1754464;81;21482;-79
2022/06/19 02:09:01;;;;;;;9.68;4.42;;;;;;;17.92;65.18;100258.78;1754195;81;21450;-85
2022/06/19 02:11:33;;;;;;;7.08;4.05;;;;;;;17.93;65.33;100253.39;1754441;81;21033;-79
2022/06/19 02:14:03;;;;;;;7.08;4.25;;;;;;;17.93;65.25;100247.21;1754274;81;21111;-79
2022/06/19 02:16:32;;;;;;;8.18;3.80;;;;;;;17.92;65.23;100244.20;1754556;81;21066;-79
2022/06/19 02:18:59;;;;;;;6.70;3.95;;;;;;;17.90;65.29;100242.12;1754479;81;21471;-80
2022/06/19 02:21:46;;;;;;;7.40;4.25;;;;;;;17.82;65.57;100225.45;1754219;81;21040;-79
2022/06/19 02:24:18;;;;;;;9.43;3.85;;;;;;;17.82;65.57;100225.45;1742522;81;21009;-79
2022/06/19 02:26:48;;;;;;;13.53;4.62;;;;;;;17.82;65.68;100232.08;1729382;82;21052;-80
2022/06/19 02:29:18;;;;;;;5.95;3.55;;;;;;;17.82;65.88;100226.78;1714295;82;21090;-79
2022/06/19 02:31:50;;;;;;;8.13;3.75;;;;;;;17.77;65.92;100225.73;1754082;81;21009;-81
2022/06/19 02:34:38;;;;;;;11.28;4.12;;;;;;;17.74;66.07;100221.97;1754115;81;21009;-80
2022/06/19 02:37:21;;;;;;;8.33;3.87;;;;;;;17.76;66.16;100224.50;1754110;81;21048;-79
2022/06/19 02:39:56;;;;;;;12.35;4.17;;;;;;;17.71;65.98;100212.04;1750755;80;21045;-79
2022/06/19 02:42:44;;;;;;;7.75;3.95;;;;;;;17.66;65.93;100206.23;1749267;81;21916;-78
2022/06/19 02:45:20;;;;;;;5.85;4.08;;;;;;;17.62;66.04;100200.28;1749485;82;21065;-79
2022/06/19 02:47:50;;;;;;;7.83;4.12;;;;;;;17.61;66.09;100192.81;1726735;81;21064;-82
2022/06/19 02:50:25;;;;;;;8.05;4.08;;;;;;;17.56;66.08;100188.30;1725033;82;27506;-80
2022/06/19 02:52:53;;;;;;;6.15;4.22;;;;;;;17.54;66.19;100186.71;1734508;82;21475;-79
2022/06/19 02:55:21;;;;;;;10.53;4.72;;;;;;;17.50;66.42;100180.78;1720032;83;21100;-80
2022/06/19 02:57:50;;;;;;;8.83;4.20;;;;;;;17.50;66.59;100181.27;1736490;81;21010;-79
2022/06/19 03:00:22;;;;;;;8.90;5.03;;;;;;;17.46;66.80;100177.99;1720164;83;20976;-79
2022/06/19 03:02:53;;;;;;;7.12;4.58;;;;;;;17.49;66.96;100179.59;1749715;82;21519;-79
2022/06/19 03:05:25;;;;;;;6.70;4.92;;;;;;;17.52;67.03;100176.72;1719386;82;21105;-79
2022/06/19 03:07:52;;;;;;;9.63;4.40;;;;;;;17.50;67.00;100170.67;1721039;81;21134;-80
2022/06/19 03:10:20;;;;;;;8.88;4.75;;;;;;;17.49;67.03;100168.98;1729979;82;21577;-84
2022/06/19 03:12:47;;;;;;;8.63;4.72;;;;;;;17.51;67.03;100171.87;1729752;83;20995;-79
2022/06/19 03:15:17;;;;;;;7.80;4.25;;;;;;;17.52;67.00;100159.50;1730043;83;21533;-80
2022/06/19 03:17:44;;;;;;;5.85;4.10;;;;;;;17.52;67.00;100159.50;1729998;82;27021;-80
2022/06/19 03:20:17;;;;;;;7.75;4.35;;;;;;;17.57;67.18;100166.62;1729971;82;21134;-81
2022/06/19 03:22:44;;;;;;;7.28;4.08;;;;;;;17.58;67.31;100157.25;1729765;82;21035;-82
2022/06/19 03:25:12;;;;;;;10.05;4.40;;;;;;;17.62;67.29;100155.22;1729715;83;21079;-80
2022/06/19 03:27:40;;;;;;;6.37;3.95;;;;;;;17.64;67.28;100154.64;1726133;82;21049;-80
2022/06/19 03:30:09;;;;;;;7.28;3.42;;;;;;;17.68;67.30;100153.49;1715578;82;21003;-84
2022/06/19 03:32:36;;;;;;;5.53;3.30;;;;;;;17.72;67.35;100144.84;1749976;82;21921;-79
2022/06/19 03:35:03;;;;;;;7.67;3.30;;;;;;;17.81;67.41;100141.06;1736910;82;20999;-79
2022/06/19 03:37:31;;;;;;;8.10;3.27;;;;;;;17.92;67.23;100144.28;1749744;82;21017;-79
2022/06/19 03:39:58;;;;;;;7.25;3.42;;;;;;;18.05;67.16;100133.16;1725375;82;21025;-80
2022/06/19 03:42:25;;;;;;;7.08;3.52;;;;;;;18.21;67.01;100140.02;1773059;80;21289;-79
2022/06/19 03:44:52;;;;;;;6.15;3.20;;;;;;;18.32;66.81;100140.08;1750439;81;21158;-81
2022/06/19 03:47:24;;;;;;;6.60;3.40;;;;;;;18.43;66.71;100133.98;1765226;80;21030;-79
2022/06/19 03:49:51;;;;;;;6.95;2.90;;;;;;;18.55;66.66;100124.26;1773452;80;21030;-79
2022/06/19 03:52:18;;;;;;;6.08;3.60;;;;;;;18.66;66.27;100121.16;1755929;80;21543;-83
2022/06/19 03:54:46;;;;;;;5.80;3.35;;;;;;;18.77;66.24;100124.37;1730151;80;21555;-78
2022/06/19 03:57:14;;;;;;;6.00;3.10;;;;;;;18.84;66.21;100123.41;1729905;81;22020;-81
2022/06/19 03:59:42;;;;;;;6.62;2.85;;;;;;;18.91;65.79;100120.18;1730081;81;21050;-79
2022/06/19 04:02:10;;;;;;;6.35;3.55;;;;;;;19.02;65.63;100117.19;1729990;80;20951;-79
2022/06/19 04:04:42;;;;;;;4.75;2.83;;;;;;;19.11;65.52;100117.31;1729847;81;21022;-78
2022/06/19 04:07:15;;;;;;;6.10;2.90;;;;;;;19.20;65.32;100109.11;1729904;81;21025;-78
2022/06/19 04:09:43;;;;;;;8.35;3.15;;;;;;;19.27;65.13;100102.37;1729882;81;21587;-78
2022/06/19 04:12:12;;;;;;;5.35;3.22;;;;;;;19.37;64.99;100107.34;1729945;81;21461;-78
2022/06/19 04:14:40;;;;;;;9.23;3.02;;;;;;;19.45;64.82;100105.87;1730073;80;21531;-79
2022/06/19 04:17:08;;;;;;;7.28;2.92;;;;;;;19.52;64.72;100108.41;1729925;80;21022;-79
2022/06/19 04:19:35;;;;;;;4.85;3.08;;;;;;;19.59;64.69;100108.27;1735437;81;21094;-79
2022/06/19 04:22:04;;;;;;;6.97;3.37;;;;;;;19.67;64.53;100110.36;1743035;80;21059;-79
2022/06/19 04:24:31;;;;;;;4.72;3.30;;;;;;;19.74;64.32;100118.23;1750455;81;20998;-79
2022/06/19 04:27:00;;;;;;;4.15;3.15;;;;;;;19.79;64.27;100116.05;1736927;81;20995;-78
2022/06/19 04:29:27;;;;;;;4.22;2.83;;;;;;;19.87;64.28;100115.41;1773275;80;21081;-79
2022/06/19 04:31:56;;;;;;;8.60;2.90;;;;;;;19.93;64.31;100106.97;1736452;82;21126;-79
2022/06/19 04:34:23;;;;;;;4.30;2.90;;;;;;;20.00;64.35;100115.63;1754860;80;21165;-79
2022/06/19 04:36:51;;;;;;;4.72;2.83;;;;;;;20.07;64.34;100109.34;1773624;80;21034;-79
2022/06/19 04:39:18;;;;;;;4.00;3.00;;;;;;;20.14;64.32;100108.34;1775281;79;21113;-80
2022/06/19 04:41:46;;;;;;;6.92;2.92;;;;;;;20.22;64.34;100109.41;1781127;80;20998;-79
2022/06/19 04:44:17;;;;;;;5.62;3.37;;;;;;;20.31;64.27;100106.47;1781147;80;21050;-80
2022/06/19 04:46:44;;;;;;;3.90;2.70;;;;;;;20.39;64.30;100105.35;1781102;80;21512;-80
2022/06/19 04:49:14;;;;;;;7.65;3.15;;;;;;;20.48;64.15;100103.28;1781057;80;21511;-81
2022/06/19 04:51:43;;;;;;;6.95;3.22;;;;;;;20.58;64.14;100103.86;1781151;80;21540;-80
2022/06/19 04:54:11;;;;;;;4.60;2.65;;;;;;;20.67;63.84;100103.95;1781397;80;21256;-80
2022/06/19 04:56:38;;;;;;;5.67;2.70;;;;;;;20.77;63.61;100096.02;1781308;80;21033;-79
2022/06/19 04:59:07;;;;;;;6.15;3.40;;;;;;;20.86;63.42;100090.39;1781510;80;21103;-79
2022/06/19 05:01:38;;;;;;;8.98;2.77;;;;;;;20.95;63.12;100092.30;1780908;80;21048;-80
2022/06/19 05:04:10;;;;;;;3.92;2.45;;;;;;;21.03;62.83;100088.95;1769704;80;21022;-79
2022/06/19 05:06:37;;;;;;;3.77;2.70;;;;;;;21.10;62.60;100080.30;1763992;80;21070;-81
2022/06/19 05:09:05;;;;;;;7.05;2.85;;;;;;;21.18;62.38;100077.48;1781153;80;20979;-82
2022/06/19 05:11:33;;;;;;;5.70;2.58;;;;;;;21.27;62.14;100078.00;1780893;80;21128;-81
2022/06/19 05:14:01;;;;;;;4.58;2.70;;;;;;;21.34;61.90;100073.84;1781117;80;21021;-80
2022/06/19 05:16:30;;;;;;;4.30;3.00;;;;;;;21.42;61.71;100079.34;1780923;80;20975;-81
2022/06/19 05:18:57;;;;;;;7.67;3.40;;;;;;;21.49;61.49;100086.34;1773770;80;21036;-81
2022/06/19 05:21:26;;;;;;;8.85;3.35;;;;;;;21.55;61.26;100080.45;1774501;80;21653;-82
2022/06/19 05:23:55;;;;;;;6.30;3.20;;;;;;;21.60;61.11;100076.41;1780964;80;21071;-83
2022/06/19 05:26:34;;;;;;;3.75;2.80;;;;;;;21.68;60.99;100077.56;1781113;80;21029;-90
2022/06/19 05:29:03;;;;;;;5.25;2.95;;;;;;;21.75;60.83;100076.02;1780985;80;21086;-81
2022/06/19 05:31:34;;;;;;;7.62;2.75;;;;;;;21.82;60.66;100069.17;1772159;80;21046;-83
2022/06/19 05:34:05;;;;;;;3.77;3.12;;;;;;;21.89;60.54;100067.63;1767153;80;21530;-80
2022/06/19 05:36:37;;;;;;;6.65;2.40;;;;;;;21.97;60.42;100067.78;1770030;80;21269;-84
2022/06/19 05:39:12;;;;;;;3.98;2.70;;;;;;;22.07;60.32;100065.63;1780054;80;21018;-84
2022/06/19 05:41:42;;;;;;;4.70;2.60;;;;;;;22.14;60.19;100062.74;1764047;80;21543;-85
2022/06/19 05:44:15;;;;;;;3.30;2.80;;;;;;;22.22;60.05;100059.75;1716953;81;21030;-83
2022/06/19 05:46:43;;;;;;;3.85;2.83;;;;;;;22.31;59.94;100051.42;1724181;83;21590;-81
2022/06/19 05:49:14;;;;;;;5.45;2.92;;;;;;;22.43;59.75;100053.45;1724195;83;21245;-80
2022/06/19 05:51:46;;;;;;;5.78;2.62;;;;;;;22.54;59.50;100048.45;1708373;83;21056;-79
2022/06/19 05:54:14;;;;;;;6.35;3.02;;;;;;;22.67;59.38;100051.67;1701503;83;21064;-78
2022/06/19 05:56:41;;;;;;;6.10;2.87;;;;;;;22.80;59.18;100048.67;1706075;83;21021;-78
2022/06/19 05:59:09;;;;;;;5.97;3.55;;;;;;;22.92;59.04;100052.38;1723071;83;21001;-77
2022/06/19 06:01:36;;;;;;;5.85;2.60;;;;;;;23.05;58.74;100052.08;1709637;83;21141;-81
2022/06/19 06:04:04;;;;;;;4.62;2.42;;;;;;;23.16;58.38;100046.55;1706446;83;21076;-81
2022/06/19 06:06:32;;;;;;;7.10;2.72;;;;;;;23.30;58.14;100049.73;1699274;83;21009;-83
2022/06/19 06:08:59;;;;;;;6.67;2.45;;;;;;;23.44;57.82;100045.73;1693451;83;21013;-84
2022/06/19 06:11:27;;;;;;;5.53;2.40;;;;;;;23.56;57.60;100051.25;1694576;83;21617;-82
2022/06/19 06:13:54;;;;;;;8.30;2.52;;;;;;;23.70;57.31;100053.92;1706789;83;21182;-82
2022/06/19 06:16:22;;;;;;;3.67;2.20;;;;;;;23.84;57.01;100049.92;1735146;81;20888;-82
2022/06/19 06:18:50;;;;;;;4.08;2.12;;;;;;;23.99;56.65;100041.20;1722871;83;21552;-83
2022/06/19 06:21:22;;;;;;;3.95;2.17;;;;;;;24.13;56.29;100038.48;1750913;80;21041;-82
2022/06/19 06:23:50;;;;;;;6.05;2.52;;;;;;;24.26;56.06;100034.93;1733854;81;21112;-85
2022/06/19 06:26:22;;;;;;;7.97;2.30;;;;;;;24.41;55.78;100034.38;1758330;78;21877;-82
2022/06/19 06:28:52;;;;;;;6.35;2.70;;;;;;;24.54;55.39;100032.68;1786457;80;21049;-82
2022/06/19 06:31:20;;;;;;;8.80;4.35;;;;;;;24.69;55.14;100030.63;1785961;78;21503;-81
2022/06/19 06:33:47;;;;;;;4.50;2.05;;;;;;;24.81;54.82;100027.17;1786420;80;20975;-80
2022/06/19 06:36:15;;;;;;;7.50;3.45;;;;;;;24.96;54.63;100022.56;1786149;80;21025;-81
2022/06/19 06:38:42;;;;;;;8.48;2.98;;;;;;;25.12;54.25;100019.47;1788333;80;21052;-80
2022/06/19 06:41:13;;;;;;;8.90;2.80;;;;;;;25.27;53.63;100018.89;1783107;78;21022;-80
2022/06/19 06:43:44;;;;;;;6.75;2.33;;;;;;;25.43;53.25;100019.47;1786729;78;21079;-80
2022/06/19 06:46:18;;;;;;;6.25;2.33;;;;;;;25.59;52.76;100026.23;1785992;78;21107;-82
2022/06/19 06:48:47;;;;;;;4.22;1.70;;;;;;;25.72;52.42;100021.75;1708464;83;21684;-81
2022/06/19 06:51:19;;;;;;;8.18;2.52;;;;;;;25.90;52.03;100021.64;1710139;83;21070;-81
2022/06/19 06:53:46;;;;;;;7.12;2.10;;;;;;;26.04;51.56;100023.67;1752567;81;21489;-80
2022/06/19 06:56:13;;;;;;;4.15;1.90;;;;;;;26.20;51.15;100014.80;1729154;81;21041;-80
2022/06/19 06:58:44;;;;;;;12.60;2.72;;;;;;;26.35;50.65;100018.98;1740361;81;21057;-78
2022/06/19 07:01:18;;;;;;;7.05;2.17;;;;;;;26.48;50.11;100007.23;1747417;81;21025;-78
2022/06/19 07:03:54;;;;;;;6.37;2.08;;;;;;;26.64;49.71;100010.44;1750505;81;21157;-81
2022/06/19 07:06:29;;;;;;;6.50;2.15;;;;;;;26.80;49.32;100006.86;1750644;81;21076;-80
2022/06/19 07:08:59;;;;;;;7.67;2.17;;;;;;;26.96;48.86;100006.82;1738866;81;21100;-78
2022/06/19 07:11:36;;;;;;;7.17;2.15;;;;;;;27.08;48.41;99998.73;1746533;80;21036;-82
2022/06/19 07:14:05;;;;;;;6.47;2.10;;;;;;;27.25;48.08;100004.08;1724909;82;21098;-81
2022/06/19 07:16:32;;;;;;;6.65;2.08;;;;;;;27.39;47.51;99999.81;1746107;81;21086;-80
2022/06/19 07:19:00;;;;;;;8.18;2.00;;;;;;;27.51;47.06;100003.27;1732750;81;21009;-81
2022/06/19 07:21:28;;;;;;;4.28;1.98;;;;;;;27.66;46.53;99991.73;1735185;81;21491;-79
2022/06/19 07:23:56;;;;;;;5.37;1.87;;;;;;;27.75;46.08;99992.04;1733665;81;21083;-80
2022/06/19 07:26:25;;;;;;;7.10;1.90;;;;;;;27.88;45.91;99979.34;1728064;82;21113;-81
2022/06/19 07:28:53;;;;;;;10.03;2.30;;;;;;;28.00;45.54;99972.02;1741623;81;21118;-82
2022/06/19 07:31:20;;;;;;;8.63;2.10;;;;;;;28.13;45.09;99970.08;1724187;81;21052;-82
2022/06/19 07:33:48;;;;;;;6.97;1.87;;;;;;;28.29;44.60;99968.24;1724035;81;21048;-83
2022/06/19 07:36:20;;;;;;;10.48;2.02;;;;;;;28.41;44.27;99966.28;1724295;81;21437;-82
2022/06/19 07:38:48;;;;;;;5.33;2.08;;;;;;;28.51;43.81;99966.03;1724377;81;21001;-79
2022/06/19 07:41:16;;;;;;;3.95;1.85;;;;;;;28.64;43.34;99963.55;1724018;81;21124;-84
2022/06/19 07:43:46;;;;;;;9.28;1.77;;;;;;;28.72;42.90;99962.63;1724457;81;21051;-80
2022/06/19 07:46:14;;;;;;;8.00;1.98;;;;;;;28.79;42.52;99965.41;1724069;81;22334;-80
2022/06/19 07:51:30;;;;;;;5.72;2.00;;;;;;;29.10;42.00;99976.89;1724175;81;21573;-80
2022/06/19 07:53:58;;;;;;;4.53;2.08;;;;;;;29.19;41.50;99976.27;1724412;81;21194;-81
2022/06/19 07:56:26;;;;;;;9.83;1.92;;;;;;;29.23;41.22;99968.11;1724272;81;21035;-81
2022/06/19 07:58:54;;;;;;;7.23;1.83;;;;;;;29.30;41.12;99969.03;1724448;81;21099;-79
2022/06/19 08:01:21;;;;;;;6.53;1.90;;;;;;;29.43;40.91;99973.77;1724317;81;21040;-80
2022/06/19 08:03:48;;;;;;;9.03;2.10;;;;;;;29.50;40.39;99966.56;1724237;81;21293;-79
2022/06/19 08:06:19;;;;;;;7.65;1.92;;;;;;;29.57;39.29;99968.00;1724340;81;21199;-80
2022/06/19 08:08:47;;;;;;;8.15;2.00;;;;;;;29.65;39.54;99963.84;1724273;81;21529;-81
2022/06/19 08:11:14;;;;;;;4.07;1.90;;;;;;;29.74;39.44;99965.93;1724294;83;21035;-80
2022/06/19 08:13:41;;;;;;;5.40;1.90;;;;;;;29.81;38.40;99963.28;1703791;81;21660;-82
2022/06/19 08:16:12;;;;;;;5.05;1.65;;;;;;;29.81;38.67;99961.94;1724122;81;21002;-85
2022/06/19 08:18:44;;;;;;;7.33;2.00;;;;;;;29.83;38.78;99966.63;1722689;81;21151;-79
2022/06/19 08:21:11;;;;;;;5.97;1.80;;;;;;;29.96;38.13;99969.47;1724143;81;21068;-78
2022/06/19 08:23:38;;;;;;;7.20;1.77;;;;;;;29.97;38.45;99960.33;1724097;81;21017;-79
2022/06/19 08:26:05;;;;;;;2.92;1.67;;;;;;;30.05;38.15;99948.55;1724243;81;21040;-80
2022/06/19 08:28:57;;;;;;;7.30;1.90;;;;;;;30.12;38.33;99954.83;1724105;81;21551;-77
2022/06/19 08:31:20;;;;;;;7.22;2.02;;;;;;;30.21;37.22;99960.44;1704889;81;21138;-80
2022/06/19 08:33:47;;;;;;;5.12;1.77;;;;;;;30.23;37.73;99940.30;1723996;81;20997;-78
2022/06/19 08:36:14;;;;;;;6.00;1.57;;;;;;;30.33;37.61;99944.55;1724230;81;21040;-81
2022/06/19 08:38:46;;;;;;;3.65;1.70;;;;;;;30.38;37.21;99936.16;1724100;81;21541;-80
2022/06/19 08:41:31;;;;;;;6.45;2.15;;;;;;;30.47;37.39;99936.84;1718568;81;21072;-81
2022/06/19 08:44:27;;;;;;;4.15;1.80;;;;;;;30.53;36.88;99925.75;1767739;79;21181;-78
2022/06/19 08:47:30;;;;;;;4.90;1.80;;;;;;;30.53;36.61;99921.17;1768404;79;21018;-82
2022/06/19 08:50:18;;;;;;;6.37;2.22;;;;;;;30.59;36.51;99918.19;1734058;80;21428;-78
2022/06/19 08:53:05;;;;;;;6.78;2.12;;;;;;;30.66;36.32;99910.44;1772061;79;22087;-86
2022/06/19 08:55:59;;;;;;;3.25;1.75;;;;;;;30.72;36.32;99920.14;1752627;80;21029;-88
2022/06/19 08:58:38;;;;;;;8.13;2.02;;;;;;;30.78;35.85;99919.34;1745305;80;21104;-81
2022/06/19 09:01:30;;;;;;;8.88;2.08;;;;;;;30.79;35.50;99921.00;1767583;79;20895;-83
2022/06/19 09:07:08;;;;;;;9.50;2.00;;;;;;;30.88;34.91;99906.31;1772331;80;21009;-83
2022/06/19 09:09:52;;;;;;;3.85;1.55;;;;;;;30.95;35.04;99919.34;1736256;80;20998;-83
2022/06/19 09:12:52;;;;;;;7.95;2.08;;;;;;;31.03;34.45;99918.34;1768906;80;21773;-82
2022/06/19 09:15:34;;;;;;;8.60;2.10;;;;;;;31.07;34.62;99922.33;1767155;79;21045;-76
2022/06/19 09:18:15;;;;;;;4.58;1.82;;;;;;;31.10;34.48;99917.86;1767311;79;21037;-81
2022/06/19 09:21:03;;;;;;;4.37;1.80;;;;;;;31.17;34.18;99915.17;1742409;81;21047;-78
2022/06/19 09:23:58;;;;;;;6.47;1.92;;;;;;;31.27;34.42;99896.15;1775528;79;21539;-85
2022/06/19 09:26:49;;;;;;;9.03;2.00;;;;;;;31.38;33.83;99909.65;1776477;80;21200;-79
2022/06/19 09:29:42;;;;;;;10.40;2.10;;;;;;;31.44;33.93;99893.92;1773496;79;21049;-82
2022/06/19 09:32:39;;;;;;;4.87;1.60;;;;;;;31.53;33.67;99897.27;1775770;79;21085;-79
2022/06/19 09:35:24;;;;;;;6.10;1.90;;;;;;;31.63;33.70;99897.72;1763363;80;20970;-80
2022/06/19 09:38:06;;;;;;;6.25;1.98;;;;;;;31.71;33.62;99890.74;1775728;80;21429;-80
2022/06/19 09:40:41;;;;;;;9.80;2.00;;;;;;;31.84;33.63;99887.19;1758974;79;21221;-81
2022/06/19 09:43:28;;;;;;;5.60;1.70;;;;;;;32.02;33.42;99883.90;1748875;80;21054;-81
2022/06/19 09:46:24;;;;;;;5.65;1.92;;;;;;;32.13;33.29;99875.12;1741443;80;21050;-87
2022/06/19 09:49:12;;;;;;;8.00;2.05;;;;;;;32.25;33.06;99878.55;1772463;80;21052;-79
2022/06/19 09:51:45;;;;;;;6.58;1.72;;;;;;;32.29;32.74;99875.22;1755296;80;21046;-82
2022/06/19 09:54:27;;;;;;;8.45;2.00;;;;;;;32.38;32.44;99873.11;1776675;80;21538;-84
2022/06/19 09:57:17;;;;;;;6.80;1.80;;;;;;;32.43;32.39;99870.59;1769753;80;21033;-83
2022/06/19 10:00:01;;;;;;;7.83;1.92;;;;;;;32.53;32.48;99874.24;1711546;83;21077;-77
2022/06/19 10:02:54;;;;;;;5.80;1.77;;;;;;;32.62;32.16;99871.63;1722522;83;20993;-79
2022/06/19 10:05:36;;;;;;;8.73;2.00;;;;;;;32.68;31.96;99857.20;1736312;82;21532;-78
2022/06/19 10:08:29;;;;;;;9.28;1.87;;;;;;;32.77;31.82;99863.21;1753996;81;21099;-80
2022/06/19 10:11:25;;;;;;;9.88;2.33;;;;;;;32.82;31.61;99875.09;1754012;81;21044;-79
2022/06/19 10:14:07;;;;;;;10.32;1.87;;;;;;;32.88;31.24;99870.68;1753947;81;21004;-80
2022/06/19 10:17:20;;;;;;;4.58;1.70;;;;;;;32.88;31.13;99872.04;1753883;81;21021;-78
2022/06/19 10:20:05;;;;;;;13.83;2.20;;;;;;;32.92;31.05;99865.11;1753643;81;21052;-79
2022/06/19 10:23:06;;;;;;;7.83;2.10;;;;;;;33.00;30.96;99844.54;1735458;82;21119;-82
2022/06/19 10:26:11;;;;;;;6.85;1.90;;;;;;;33.15;30.82;99859.73;1724972;82;21063;-81
2022/06/19 10:28:56;;;;;;;8.05;1.90;;;;;;;33.28;30.66;99837.38;1721173;81;21115;-78
2022/06/19 10:31:52;;;;;;;8.23;2.22;;;;;;;33.40;30.37;99836.70;1729503;81;21595;-80
2022/06/19 10:34:43;;;;;;;9.70;2.27;;;;;;;33.53;30.41;99832.53;1732017;81;21064;-79
2022/06/19 10:37:25;;;;;;;9.20;1.95;;;;;;;33.77;29.83;99837.67;1728715;82;21101;-81
2022/06/19 10:40:11;;;;;;;10.25;2.50;;;;;;;33.91;29.59;99846.55;1723862;81;21014;-79
2022/06/19 10:43:00;;;;;;;7.67;2.27;;;;;;;34.13;29.43;99861.42;1715818;81;20947;-77
2022/06/19 10:45:42;;;;;;;10.10;2.40;;;;;;;34.41;28.68;99833.71;1738863;81;21069;-82
2022/06/19 10:48:38;;;;;;;9.78;2.20;;;;;;;34.54;29.17;99813.69;1742093;81;21009;-78
2022/06/19 10:51:33;;;;;;;10.90;2.22;;;;;;;34.83;28.57;99819.41;1726989;81;21202;-79
2022/06/19 10:54:26;;;;;;;8.65;1.85;;;;;;;34.98;28.24;99810.31;1715292;83;21041;-79
2022/06/19 10:57:11;;;;;;;9.98;2.00;;;;;;;35.18;28.27;99801.05;1693893;83;21041;-78
2022/06/19 10:59:38;;;;;;;7.22;2.10;;;;;;;35.45;27.95;99801.48;1716431;82;21087;-82
2022/06/19 11:05:49;;;;;;;6.97;2.00;;;;;;;35.89;27.80;99800.11;1690651;84;21750;-84
2022/06/19 11:08:22;;;;;;;7.60;1.70;;;;;;;36.14;27.46;99802.61;1686518;84;21084;-78
2022/06/19 11:10:56;;;;;;;5.95;2.00;;;;;;;36.26;27.37;99793.58;1690261;84;21445;-80
2022/06/19 11:13:26;;;;;;;14.07;2.35;;;;;;;36.47;27.13;99803.00;1681120;84;21316;-78
2022/06/19 11:16:05;;;;;;;6.37;1.70;;;;;;;36.52;26.58;99794.38;1687314;84;21039;-80
2022/06/19 11:18:49;;;;;;;8.20;2.05;;;;;;;36.63;26.71;99788.09;1676182;84;21794;-76
2022/06/19 11:21:21;;;;;;;12.10;2.10;;;;;;;36.84;26.81;99780.30;1675748;84;21011;-80
2022/06/19 11:23:53;;;;;;;10.40;2.02;;;;;;;37.02;26.34;99792.94;1663451;84;21646;-76
2022/06/19 11:26:45;;;;;;;20.52;2.02;;;;;;;36.88;26.03;99792.92;1670707;84;21094;-80
2022/06/19 11:29:20;;;;;;;10.18;2.05;;;;;;;36.94;26.29;99772.28;1673264;85;21614;-78
2022/06/19 11:32:10;;;;;;;11.83;1.77;;;;;;;37.11;25.86;99779.20;1673627;85;21775;-80
2022/06/19 11:34:43;;;;;;;7.90;1.87;;;;;;;37.02;25.66;99763.72;1666683;85;21042;-80
2022/06/19 11:37:20;;;;;;;12.10;1.82;;;;;;;37.04;25.44;99753.38;1712236;83;21066;-79
2022/06/19 11:39:59;;;;;;;6.55;1.90;;;;;;;36.98;25.15;99760.34;1719308;83;21026;-82
2022/06/19 11:42:53;;;;;;;;;;;;;;;36.97;25.55;99750.47;1714581;82;21047;-79
2022/06/19 11:45:26;;;;;;;9.03;2.30;;;;;;;37.11;25.29;99746.92;1777459;80;21152;-80
2022/06/19 11:48:01;;;;;;;14.80;1.87;;;;;;;37.02;25.20;99736.94;1782677;80;22221;-78
2022/06/19 11:50:46;;;;;;;12.75;2.12;;;;;;;36.96;25.16;99725.06;1783855;80;21459;-84
2022/06/19 11:53:37;;;;;;;11.10;2.20;;;;;;;37.04;25.24;99721.14;1761356;80;21073;-85
2022/06/19 11:56:25;;;;;;;8.38;2.00;;;;;;;37.12;25.02;99725.38;1775534;79;21531;-79
2022/06/19 11:59:00;;;;;;;14.68;2.67;;;;;;;37.09;24.76;99714.40;1779226;80;21079;-77
2022/06/19 12:01:46;;;;;;;7.45;1.90;;;;;;;37.05;24.58;99705.03;1781247;80;21052;-76
2022/06/19 12:04:24;;;;;;;7.58;1.98;;;;;;;37.03;24.44;99712.66;1777129;79;21060;-78
2022/06/19 12:07:04;;;;;;;6.67;1.87;;;;;;;37.09;24.74;99699.38;1762963;80;21049;-77
2022/06/19 12:10:02;;;;;;;7.22;1.85;;;;;;;37.22;24.45;99694.95;1757795;79;21078;-77
2022/06/19 12:12:33;;;;;;;10.98;2.12;;;;;;;37.13;24.30;99688.22;1771960;79;21092;-77
2022/06/19 12:15:23;;;;;;;9.45;1.90;;;;;;;37.04;24.10;99676.89;1775856;80;21057;-80